createdAt,value
2022-11-21T00:01:25.938Z,7.90
2022-11-21T00:03:54.019Z,6.17
2022-11-21T00:06:21.936Z,6.72
2022-11-21T00:08:49.814Z,6.53
2022-11-21T00:11:17.602Z,7.40
2022-11-21T00:13:45.389Z,9.98
2022-11-21T00:16:15.223Z,10.70
2022-11-21T00:18:44.420Z,11.57
2022-11-21T00:21:17.482Z,9.02
2022-11-21T00:23:46.408Z,9.52
2022-11-21T00:26:15.266Z,8.90
2022-11-21T00:28:43.242Z,7.80
2022-11-21T00:31:21.237Z,7.32
2022-11-21T00:33:48.739Z,6.57
2022-11-21T00:36:16.714Z,6.40
2022-11-21T00:38:44.397Z,6.35
2022-11-21T00:41:11.790Z,5.83
2022-11-21T00:43:39.501Z,5.50
2022-11-21T00:46:06.946Z,7.40
2022-11-21T00:48:34.389Z,9.05
2022-11-21T00:51:02.184Z,8.63
2022-11-21T00:53:30.291Z,8.30
2022-11-21T00:55:58.069Z,9.73
2022-11-21T00:58:26.218Z,9.88
2022-11-21T01:01:01.847Z,9.82
2022-11-21T01:03:29.690Z,9.60
2022-11-21T01:06:04.225Z,8.67
2022-11-21T01:08:32.402Z,8.52
2022-11-21T01:11:03.566Z,9.13
2022-11-21T01:13:31.278Z,9.43
2022-11-21T01:16:11.846Z,9.18
2022-11-21T01:18:39.396Z,9.60
2022-11-21T01:21:12.999Z,9.80
2022-11-21T01:23:40.463Z,9.10
2022-11-21T01:26:11.449Z,9.55
2022-11-21T01:28:38.922Z,8.70
2022-11-21T01:31:09.034Z,8.43
2022-11-21T01:33:38.102Z,7.90
2022-11-21T01:36:10.119Z,8.70
2022-11-21T01:38:39.183Z,8.88
2022-11-21T01:41:08.110Z,8.75
2022-11-21T01:43:36.049Z,8.00
2022-11-21T01:46:09.492Z,7.50
2022-11-21T01:48:42.854Z,7.25
2022-11-21T01:51:25.761Z,8.00
2022-11-21T01:54:36.682Z,7.75
2022-11-21T01:57:08.393Z,7.47
2022-11-21T01:59:54.721Z,7.72
2022-11-21T02:02:26.228Z,7.60
2022-11-21T02:04:55.167Z,7.70
2022-11-21T02:07:24.922Z,7.93
2022-11-21T02:09:56.080Z,7.30
2022-11-21T02:12:49.115Z,7.22
2022-11-21T02:15:18.351Z,6.65
2022-11-21T02:17:46.026Z,5.65
2022-11-21T02:20:16.990Z,6.00
2022-11-21T02:22:54.922Z,6.03
2022-11-21T02:25:26.742Z,4.60
2022-11-21T02:27:59.221Z,5.15
2022-11-21T02:30:28.570Z,4.30
2022-11-21T02:32:56.531Z,4.32
2022-11-21T02:35:23.999Z,4.93
2022-11-21T02:37:58.338Z,4.90
2022-11-21T02:40:31.658Z,5.15
2022-11-21T02:43:03.020Z,3.83
2022-11-21T02:45:42.719Z,4.37
2022-11-21T02:48:11.566Z,4.50
2022-11-21T02:50:41.589Z,3.95
2022-11-21T02:53:12.519Z,4.00
2022-11-21T02:55:40.517Z,4.28
2022-11-21T02:58:07.949Z,4.10
2022-11-21T03:00:37.224Z,4.60
2022-11-21T03:03:05.344Z,4.05
2022-11-21T03:05:33.281Z,4.87
2022-11-21T03:08:00.657Z,4.78
2022-11-21T03:10:28.470Z,3.83
2022-11-21T03:13:01.077Z,3.47
2022-11-21T03:15:31.274Z,3.50
2022-11-21T03:18:01.157Z,3.62
2022-11-21T03:20:30.056Z,3.37
2022-11-21T03:22:57.494Z,3.70
2022-11-21T03:25:24.896Z,4.03
2022-11-21T03:27:53.628Z,3.95
2022-11-21T03:30:23.020Z,4.05
2022-11-21T03:32:50.474Z,3.17
2022-11-21T03:35:18.218Z,2.92
2022-11-21T03:37:48.507Z,3.57
2022-11-21T03:40:15.826Z,3.50
2022-11-21T03:42:43.699Z,3.30
2022-11-21T03:45:11.385Z,3.83
2022-11-21T03:47:38.844Z,3.55
2022-11-21T03:50:07.049Z,3.40
2022-11-21T03:52:34.466Z,3.37
2022-11-21T03:55:01.891Z,2.87
2022-11-21T03:57:29.609Z,3.12
2022-11-21T03:59:56.975Z,3.20
2022-11-21T04:02:24.360Z,3.73
2022-11-21T04:04:52.110Z,3.30
2022-11-21T04:07:19.583Z,4.18
2022-11-21T04:09:47.039Z,4.32
2022-11-21T04:12:14.708Z,4.18
2022-11-21T04:14:42.118Z,4.17
2022-11-21T04:17:09.546Z,4.03
2022-11-21T04:19:37.278Z,4.43
2022-11-21T04:22:04.668Z,4.62
2022-11-21T04:24:32.053Z,4.97
2022-11-21T04:26:59.770Z,4.73
2022-11-21T04:29:27.148Z,4.75
2022-11-21T04:31:54.518Z,5.75
2022-11-21T04:34:22.239Z,5.47
2022-11-21T04:36:49.669Z,5.00
2022-11-21T04:39:17.101Z,4.53
2022-11-21T04:41:44.778Z,4.43
2022-11-21T04:44:12.196Z,4.80
2022-11-21T04:46:39.566Z,4.62
2022-11-21T04:49:07.237Z,4.10
2022-11-21T04:51:34.709Z,5.27
2022-11-21T04:54:02.177Z,4.60
2022-11-21T04:56:29.903Z,4.50
2022-11-21T04:58:57.270Z,4.20
2022-11-21T05:01:24.667Z,4.37
2022-11-21T05:03:52.878Z,4.43
2022-11-21T05:06:20.254Z,4.37
2022-11-21T05:08:51.733Z,4.45
2022-11-21T05:11:39.163Z,4.50
2022-11-21T05:14:06.618Z,4.60
2022-11-21T05:16:34.755Z,3.63
2022-11-21T05:19:02.164Z,4.10
2022-11-21T05:21:29.601Z,3.97
2022-11-21T05:23:57.266Z,3.95
2022-11-21T05:26:24.689Z,4.12
2022-11-21T05:28:52.126Z,4.30
2022-11-21T05:31:19.796Z,4.30
2022-11-21T05:33:47.501Z,4.55
2022-11-21T05:36:14.921Z,4.10
2022-11-21T05:38:43.078Z,5.93
2022-11-21T05:41:10.500Z,4.87
2022-11-21T05:43:47.322Z,5.10
2022-11-21T05:46:20.495Z,4.40
2022-11-21T05:48:49.399Z,4.53
2022-11-21T05:51:18.115Z,3.87
2022-11-21T05:53:45.793Z,4.43
2022-11-21T05:56:19.363Z,4.18
2022-11-21T05:58:47.256Z,4.18
2022-11-21T06:01:15.442Z,3.30
2022-11-21T06:03:43.483Z,3.75
2022-11-21T06:06:13.717Z,3.70
2022-11-21T06:08:43.556Z,4.28
2022-11-21T06:11:16.702Z,4.65
2022-11-21T06:13:44.195Z,3.60
2022-11-21T06:16:14.518Z,3.72
2022-11-21T06:18:43.962Z,3.83
2022-11-21T06:21:17.321Z,4.22
2022-11-21T06:23:45.790Z,3.65
2022-11-21T06:26:16.289Z,4.00
2022-11-21T06:28:44.891Z,3.83
2022-11-21T06:31:20.942Z,3.40
2022-11-21T06:33:52.505Z,3.95
2022-11-21T06:36:20.553Z,3.30
2022-11-21T06:38:48.339Z,3.22
2022-11-21T06:41:19.684Z,3.62
2022-11-21T06:43:47.775Z,3.23
2022-11-21T06:46:15.810Z,3.50
2022-11-21T06:48:43.721Z,3.53
2022-11-21T06:51:20.360Z,3.70
2022-11-21T06:53:55.955Z,3.70
2022-11-21T06:56:25.866Z,3.50
2022-11-21T06:58:53.738Z,3.85
2022-11-21T07:01:21.891Z,4.43
2022-11-21T07:03:49.814Z,4.90
2022-11-21T07:06:17.284Z,4.60
2022-11-21T07:08:44.677Z,4.43
2022-11-21T07:11:29.847Z,4.80
2022-11-21T07:13:57.311Z,4.37
2022-11-21T07:16:26.433Z,4.62
2022-11-21T07:18:54.041Z,4.43
2022-11-21T07:21:21.726Z,4.43
2022-11-21T07:23:49.442Z,4.87
2022-11-21T07:26:16.907Z,5.10
2022-11-21T07:28:44.314Z,5.45
2022-11-21T07:31:14.255Z,4.78
2022-11-21T07:33:46.865Z,5.00
2022-11-21T07:36:15.016Z,5.60
2022-11-21T07:38:42.559Z,4.85
2022-11-21T07:41:10.277Z,4.15
2022-11-21T07:43:38.034Z,4.45
2022-11-21T07:46:05.496Z,3.90
2022-11-21T07:48:32.962Z,3.95
2022-11-21T07:51:04.150Z,3.80
2022-11-21T07:53:31.669Z,4.15
2022-11-21T07:55:59.935Z,4.40
2022-11-21T07:58:27.992Z,4.60
2022-11-21T08:00:55.427Z,4.53
2022-11-21T08:03:25.305Z,4.78
2022-11-21T08:05:52.774Z,5.03
2022-11-21T08:08:20.262Z,4.22
2022-11-21T08:10:48.177Z,4.87
2022-11-21T08:13:15.697Z,4.22
2022-11-21T08:15:43.145Z,5.07
2022-11-21T08:18:13.101Z,4.32
2022-11-21T08:20:40.682Z,5.80
2022-11-21T08:23:08.242Z,4.70
2022-11-21T08:25:38.325Z,4.68
2022-11-21T08:28:06.592Z,4.47
2022-11-21T08:30:35.394Z,4.43
2022-11-21T08:33:03.970Z,5.25
2022-11-21T08:35:31.717Z,4.23
2022-11-21T08:38:02.275Z,4.62
2022-11-21T08:40:31.790Z,4.57
2022-11-21T08:43:05.114Z,4.35
2022-11-21T08:45:34.283Z,3.80
2022-11-21T08:48:02.284Z,4.50
2022-11-21T08:50:29.759Z,4.80
2022-11-21T08:53:01.692Z,4.28
2022-11-21T08:55:30.373Z,4.40
2022-11-21T08:57:58.761Z,5.15
2022-11-21T09:00:26.964Z,4.37
2022-11-21T09:02:54.409Z,4.72
2022-11-21T09:05:22.110Z,4.60
2022-11-21T09:07:56.464Z,4.40
2022-11-21T09:10:25.550Z,4.25
2022-11-21T09:12:53.482Z,4.27
2022-11-21T09:15:39.656Z,4.25
2022-11-21T09:18:08.252Z,4.10
2022-11-21T09:20:41.389Z,4.45
2022-11-21T09:23:11.778Z,5.28
2022-11-21T09:25:39.626Z,4.80
2022-11-21T09:28:08.893Z,4.57
2022-11-21T09:30:37.521Z,3.97
2022-11-21T09:33:07.507Z,4.90
2022-11-21T09:35:34.959Z,4.57
2022-11-21T09:38:02.716Z,3.80
2022-11-21T09:40:31.923Z,4.70
2022-11-21T09:43:22.791Z,4.55
2022-11-21T09:46:09.433Z,4.93
2022-11-21T09:48:58.391Z,4.05
2022-11-21T09:51:29.575Z,4.53
2022-11-21T09:54:07.678Z,5.15
2022-11-21T09:56:39.848Z,5.57
2022-11-21T09:59:14.925Z,4.75
2022-11-21T10:01:42.698Z,4.70
2022-11-21T10:04:10.555Z,5.63
2022-11-21T10:06:47.918Z,4.78
2022-11-21T10:09:39.507Z,4.82
2022-11-21T10:12:37.402Z,4.75
2022-11-21T10:15:43.465Z,4.62
2022-11-21T10:18:26.200Z,4.90
2022-11-21T10:21:12.149Z,4.12
2022-11-21T10:23:42.415Z,4.35
2022-11-21T10:26:17.912Z,3.92
2022-11-21T10:28:57.268Z,4.30
2022-11-21T10:31:28.370Z,4.50
2022-11-21T10:33:57.475Z,3.50
2022-11-21T10:36:40.743Z,4.25
2022-11-21T10:39:22.635Z,3.62
2022-11-21T10:42:00.755Z,3.83
2022-11-21T10:44:48.217Z,4.10
2022-11-21T10:47:27.987Z,4.05
2022-11-21T10:50:10.800Z,4.40
2022-11-21T10:52:50.277Z,4.28
2022-11-21T10:55:18.834Z,4.62
2022-11-21T10:57:51.474Z,4.03
2022-11-21T11:00:20.899Z,4.30
2022-11-21T11:02:58.410Z,3.75
2022-11-21T11:05:30.945Z,4.10
2022-11-21T11:08:07.846Z,3.97
2022-11-21T11:10:43.569Z,4.40
2022-11-21T11:13:49.933Z,4.32
2022-11-21T11:16:21.835Z,7.70
2022-11-21T11:18:58.429Z,4.75
2022-11-21T11:21:35.607Z,4.43
2022-11-21T11:24:09.344Z,4.60
2022-11-21T11:26:49.517Z,4.32
2022-11-21T11:29:21.685Z,4.28
2022-11-21T11:31:59.742Z,3.83
2022-11-21T11:34:39.742Z,4.22
2022-11-21T11:37:41.466Z,4.00
2022-11-21T11:40:32.000Z,4.75
2022-11-21T11:43:48.799Z,3.90
2022-11-21T11:47:04.395Z,3.55
2022-11-21T11:49:59.382Z,4.03
2022-11-21T11:52:32.728Z,3.50
2022-11-21T11:55:05.783Z,4.05
2022-11-21T11:57:37.121Z,3.72
2022-11-21T12:00:26.334Z,3.92
2022-11-21T12:03:15.357Z,4.40
2022-11-21T12:05:57.331Z,3.57
2022-11-21T12:08:52.722Z,3.60
2022-11-21T12:12:07.998Z,3.80
2022-11-21T12:15:15.373Z,3.70
2022-11-21T12:18:08.814Z,3.40
2022-11-21T12:20:46.199Z,3.40
2022-11-21T12:23:14.523Z,4.37
2022-11-21T12:25:56.822Z,3.45
2022-11-21T12:28:40.213Z,3.97
2022-11-21T12:31:29.684Z,3.70
2022-11-21T12:34:31.622Z,4.97
2022-11-21T12:37:08.443Z,4.47
2022-11-21T12:39:48.178Z,3.60
2022-11-21T12:42:47.232Z,3.90
2022-11-21T12:45:29.484Z,3.35
2022-11-21T12:48:39.090Z,4.37
2022-11-21T12:51:49.942Z,4.07
2022-11-21T12:54:39.430Z,3.92
2022-11-21T12:57:15.589Z,4.60
2022-11-21T13:00:12.333Z,5.15
2022-11-21T13:03:02.937Z,4.03
2022-11-21T13:05:37.795Z,5.40
2022-11-21T13:08:18.691Z,5.05
2022-11-21T13:11:22.353Z,5.45
2022-11-21T13:13:56.827Z,4.60
2022-11-21T13:16:39.736Z,4.00
2022-11-21T13:19:23.908Z,4.55
2022-11-21T13:21:56.440Z,4.80
2022-11-21T13:24:42.631Z,4.15
2022-11-21T13:27:33.357Z,4.85
2022-11-21T13:30:07.000Z,4.57
2022-11-21T13:32:43.633Z,4.40
2022-11-21T13:35:20.378Z,5.05
2022-11-21T13:38:08.401Z,4.07
2022-11-21T13:40:38.795Z,4.00
2022-11-21T13:46:00.225Z,4.18
2022-11-21T13:48:30.816Z,4.03
2022-11-21T13:51:23.484Z,5.40
2022-11-21T13:53:58.047Z,4.07
2022-11-21T13:56:31.937Z,4.30
2022-11-21T13:59:02.465Z,4.43
2022-11-21T14:01:35.790Z,4.57
2022-11-21T14:04:18.230Z,4.68
2022-11-21T14:06:45.977Z,5.10
2022-11-21T14:09:13.686Z,4.60
2022-11-21T14:12:02.243Z,4.53
2022-11-21T14:14:38.887Z,5.53
2022-11-21T14:17:34.872Z,4.53
2022-11-21T14:20:17.202Z,4.68
2022-11-21T14:22:58.530Z,4.40
2022-11-21T14:25:36.290Z,4.55
2022-11-21T14:28:06.615Z,4.70
2022-11-21T14:30:37.674Z,4.45
2022-11-21T14:33:25.970Z,4.07
2022-11-21T14:35:57.865Z,4.83
2022-11-21T14:38:26.169Z,5.68
2022-11-21T14:41:15.875Z,5.65
2022-11-21T14:43:43.278Z,5.12
2022-11-21T14:46:21.017Z,6.18
2022-11-21T14:48:48.779Z,5.83
2022-11-21T14:51:19.498Z,6.40
2022-11-21T14:53:48.876Z,6.05
2022-11-21T14:56:34.422Z,7.57
2022-11-21T14:59:03.524Z,6.35
2022-11-21T15:01:33.400Z,5.80
2022-11-21T15:04:03.851Z,5.18
2022-11-21T15:06:40.497Z,7.12
2022-11-21T15:12:07.909Z,6.72
2022-11-21T15:14:53.236Z,6.60
2022-11-21T15:17:24.384Z,5.47
2022-11-21T15:20:24.350Z,7.03
2022-11-21T15:23:00.630Z,7.10
2022-11-21T15:25:29.162Z,5.45
2022-11-21T15:28:00.409Z,5.60
2022-11-21T15:30:30.950Z,5.82
2022-11-21T15:33:04.726Z,5.55
2022-11-21T15:35:38.379Z,5.70
2022-11-21T15:38:31.301Z,8.65
2022-11-21T15:41:08.090Z,8.83
2022-11-21T15:43:41.455Z,11.40
2022-11-21T15:46:17.995Z,10.68
2022-11-21T15:48:57.365Z,11.57
2022-11-21T15:52:05.630Z,9.57
2022-11-21T15:54:24.045Z,7.90
2022-11-21T15:56:51.835Z,6.90
2022-11-21T15:59:21.266Z,7.40
2022-11-21T16:01:48.979Z,6.15
2022-11-21T16:04:20.972Z,6.40
2022-11-21T16:06:51.576Z,5.90
2022-11-21T16:09:19.275Z,5.28
2022-11-21T16:11:47.233Z,5.70
2022-11-21T16:14:16.508Z,4.80
2022-11-21T16:16:45.002Z,4.62
2022-11-21T16:19:13.057Z,5.90
2022-11-21T16:21:40.634Z,5.25
2022-11-21T16:24:08.681Z,4.30
2022-11-21T16:26:36.076Z,5.20
2022-11-21T16:29:06.761Z,4.97
2022-11-21T16:31:34.585Z,4.67
2022-11-21T16:34:02.651Z,4.45
2022-11-21T16:36:31.557Z,4.35
2022-11-21T16:39:07.656Z,4.82
2022-11-21T16:41:36.554Z,4.78
2022-11-21T16:44:04.477Z,5.37
2022-11-21T16:46:31.943Z,6.62
2022-11-21T16:49:03.274Z,7.20
2022-11-21T16:51:31.127Z,7.95
2022-11-21T16:54:01.738Z,7.78
2022-11-21T16:56:33.487Z,13.03
2022-11-21T16:59:00.911Z,12.57
2022-11-21T17:01:28.818Z,11.73
2022-11-21T17:03:56.621Z,11.80
2022-11-21T17:06:29.108Z,10.57
2022-11-21T17:08:58.862Z,10.67
2022-11-21T17:11:31.468Z,11.48
2022-11-21T17:14:02.301Z,16.42
2022-11-21T17:16:30.322Z,13.55
2022-11-21T17:19:00.378Z,10.50
2022-11-21T17:21:28.951Z,7.10
2022-11-21T17:23:56.409Z,6.62
2022-11-21T17:26:26.737Z,6.62
2022-11-21T17:28:59.620Z,6.70
2022-11-21T17:31:28.077Z,6.20
2022-11-21T17:33:56.956Z,16.10
2022-11-21T17:36:26.378Z,11.80
2022-11-21T17:38:54.514Z,12.30
2022-11-21T17:41:23.976Z,10.48
2022-11-21T17:43:56.104Z,10.77
2022-11-21T17:46:25.662Z,10.50
2022-11-21T17:48:58.038Z,9.35
2022-11-21T17:51:29.524Z,8.88
2022-11-21T17:53:57.245Z,8.13
2022-11-21T17:56:27.171Z,8.20
2022-11-21T17:58:55.781Z,8.00
2022-11-21T18:01:23.613Z,7.28
2022-11-21T18:03:57.655Z,7.05
2022-11-21T18:06:27.085Z,6.75
2022-11-21T18:08:57.704Z,6.32
2022-11-21T18:11:29.665Z,5.90
2022-11-21T18:14:00.077Z,6.20
2022-11-21T18:16:30.202Z,6.10
2022-11-21T18:18:58.568Z,5.62
2022-11-21T18:21:35.477Z,5.47
2022-11-21T18:24:03.296Z,4.70
2022-11-21T18:26:39.247Z,6.22
2022-11-21T18:31:56.590Z,10.88
2022-11-21T18:34:24.010Z,8.07
2022-11-21T18:36:51.455Z,7.37
2022-11-21T18:39:19.391Z,6.47
2022-11-21T18:41:47.171Z,5.70
2022-11-21T18:44:21.324Z,5.43
2022-11-21T18:46:50.326Z,5.07
2022-11-21T18:49:18.256Z,5.77
2022-11-21T18:51:46.031Z,5.53
2022-11-21T18:54:13.706Z,5.50
2022-11-21T18:56:41.396Z,5.18
2022-11-21T18:59:08.845Z,7.05
2022-11-21T19:01:39.519Z,8.20
2022-11-21T19:04:07.521Z,6.82
2022-11-21T19:06:35.088Z,6.97
2022-11-21T19:09:02.823Z,7.60
2022-11-21T19:11:30.519Z,7.68
2022-11-21T19:13:59.402Z,9.57
2022-11-21T19:16:30.947Z,10.38
2022-11-21T19:21:47.312Z,9.55
2022-11-21T19:24:16.190Z,10.15
2022-11-21T19:26:43.669Z,9.87
2022-11-21T19:29:11.587Z,10.73
2022-11-21T19:31:45.262Z,8.88
2022-11-21T19:34:15.139Z,8.38
2022-11-21T19:36:42.956Z,8.77
2022-11-21T19:39:10.569Z,8.57
2022-11-21T19:41:38.822Z,8.23
2022-11-21T19:44:06.293Z,8.18
2022-11-21T19:46:36.395Z,7.62
2022-11-21T19:49:05.814Z,8.80
2022-11-21T19:51:39.139Z,8.03
2022-11-21T19:54:08.884Z,8.93
2022-11-21T19:56:36.682Z,7.15
2022-11-21T19:59:04.555Z,6.87
2022-11-21T20:01:34.087Z,10.75
2022-11-21T20:04:04.083Z,11.37
2022-11-21T20:06:33.960Z,10.93
2022-11-21T20:09:10.290Z,9.65
2022-11-21T20:11:40.419Z,8.25
2022-11-21T20:14:08.727Z,7.32
2022-11-21T20:16:41.975Z,6.43
2022-11-21T20:19:12.058Z,7.05
2022-11-21T20:21:39.539Z,6.90
2022-11-21T20:24:07.785Z,6.55
2022-11-21T20:26:36.787Z,6.82
2022-11-21T20:29:05.322Z,7.00
2022-11-21T20:31:35.377Z,6.37
2022-11-21T20:34:05.946Z,6.90
2022-11-21T20:36:35.129Z,6.93
2022-11-21T20:39:08.593Z,7.15
2022-11-21T20:41:37.514Z,6.97
2022-11-21T20:46:54.749Z,7.57
2022-11-21T20:49:22.537Z,8.35
2022-11-21T20:53:20.627Z,7.82
2022-11-21T20:54:38.803Z,7.43
2022-11-21T20:57:10.445Z,6.75
2022-11-21T20:59:42.355Z,6.75
2022-11-21T21:02:12.323Z,6.15
2022-11-21T21:04:40.050Z,8.60
2022-11-21T21:07:07.853Z,8.33
2022-11-21T21:09:35.364Z,7.80
2022-11-21T21:12:02.871Z,7.85
2022-11-21T21:14:30.548Z,8.93
2022-11-21T21:16:57.874Z,8.32
2022-11-21T21:19:25.265Z,6.97
2022-11-21T21:21:53.049Z,6.95
2022-11-21T21:24:20.554Z,7.18
2022-11-21T21:26:49.030Z,7.32
2022-11-21T21:29:20.435Z,7.50
2022-11-21T21:31:51.529Z,7.80
2022-11-21T21:34:21.997Z,8.07
2022-11-21T21:36:50.948Z,8.40
2022-11-21T21:39:18.595Z,8.07
2022-11-21T21:41:47.242Z,9.15
2022-11-21T21:44:16.100Z,10.47
2022-11-21T21:46:44.185Z,9.27
2022-11-21T21:49:12.136Z,9.20
2022-11-21T21:51:40.192Z,9.63
2022-11-21T21:54:14.876Z,8.82
2022-11-21T21:56:42.587Z,9.33
2022-11-21T21:59:10.029Z,8.00
2022-11-21T22:01:37.455Z,8.20
2022-11-21T22:04:06.292Z,8.68
2022-11-21T22:06:34.470Z,8.32
2022-11-21T22:09:02.459Z,8.37
2022-11-21T22:11:32.482Z,8.90
2022-11-21T22:14:06.465Z,7.95
2022-11-21T22:16:34.444Z,8.88
2022-11-21T22:19:01.986Z,8.73
2022-11-21T22:21:34.951Z,9.57
2022-11-21T22:26:52.797Z,8.57
2022-11-21T22:29:20.644Z,8.85
2022-11-21T22:31:48.103Z,10.30
2022-11-21T22:34:15.727Z,9.60
2022-11-21T22:36:44.793Z,9.38
2022-11-21T22:39:12.327Z,10.13
2022-11-21T22:41:39.810Z,9.43
2022-11-21T22:44:07.593Z,9.07
2022-11-21T22:46:35.193Z,8.63
2022-11-21T22:49:03.678Z,9.13
2022-11-21T22:51:31.395Z,8.27
2022-11-21T22:53:58.886Z,7.45
2022-11-21T22:56:27.153Z,8.82
2022-11-21T22:58:55.000Z,6.53
2022-11-21T23:01:24.896Z,6.55
2022-11-21T23:03:52.897Z,6.85
2022-11-21T23:06:25.374Z,7.47
2022-11-21T23:08:55.425Z,6.90
2022-11-21T23:11:27.613Z,7.07
2022-11-21T23:13:56.381Z,7.65
2022-11-21T23:16:25.336Z,8.52
2022-11-21T23:18:54.224Z,6.72
2022-11-21T23:21:21.771Z,6.85
2022-11-21T23:23:50.086Z,7.10
2022-11-21T23:26:17.600Z,7.82
2022-11-21T23:28:44.981Z,6.95
2022-11-21T23:31:12.930Z,7.75
2022-11-21T23:33:40.478Z,7.90
2022-11-21T23:36:07.985Z,7.03
2022-11-21T23:38:35.663Z,6.53
2022-11-21T23:41:03.236Z,6.90
2022-11-21T23:43:30.629Z,6.90
2022-11-21T23:45:58.330Z,8.00
2022-11-21T23:48:25.905Z,7.93
2022-11-21T23:50:53.371Z,8.10
2022-11-21T23:53:21.520Z,8.23
2022-11-21T23:55:49.353Z,8.60
2022-11-21T23:58:17.906Z,8.20
